sensor_id;sensor_type;location;lat;lon;timestamp;temperature;humidity
81311;DHT22;70779;52.506;5.492;2024-01-30T00:02:13;9.30;71.20
81311;DHT22;70779;52.506;5.492;2024-01-30T00:04:39;9.20;71.20
81311;DHT22;70779;52.506;5.492;2024-01-30T00:07:05;9.20;71.20
81311;DHT22;70779;52.506;5.492;2024-01-30T00:09:31;9.20;71.20
81311;DHT22;70779;52.506;5.492;2024-01-30T00:11:57;9.20;71.20
81311;DHT22;70779;52.506;5.492;2024-01-30T00:14:24;9.20;71.20
81311;DHT22;70779;52.506;5.492;2024-01-30T00:16:53;9.20;71.30
81311;DHT22;70779;52.506;5.492;2024-01-30T00:19:19;9.20;71.50
81311;DHT22;70779;52.506;5.492;2024-01-30T00:21:45;9.10;71.60
81311;DHT22;70779;52.506;5.492;2024-01-30T00:24:11;9.10;71.60
81311;DHT22;70779;52.506;5.492;2024-01-30T00:26:37;9.20;71.70
81311;DHT22;70779;52.506;5.492;2024-01-30T00:29:03;9.10;71.70
81311;DHT22;70779;52.506;5.492;2024-01-30T00:31:30;9.10;71.70
81311;DHT22;70779;52.506;5.492;2024-01-30T00:33:56;9.10;71.80
81311;DHT22;70779;52.506;5.492;2024-01-30T00:36:22;9.10;71.90
81311;DHT22;70779;52.506;5.492;2024-01-30T00:38:48;9.10;72.00
81311;DHT22;70779;52.506;5.492;2024-01-30T00:41:15;9.10;72.00
81311;DHT22;70779;52.506;5.492;2024-01-30T00:43:43;9.10;72.00
81311;DHT22;70779;52.506;5.492;2024-01-30T00:46:09;9.10;72.00
81311;DHT22;70779;52.506;5.492;2024-01-30T00:48:35;9.10;72.10
81311;DHT22;70779;52.506;5.492;2024-01-30T00:51:01;9.10;72.20
81311;DHT22;70779;52.506;5.492;2024-01-30T00:53:27;9.10;72.10
81311;DHT22;70779;52.506;5.492;2024-01-30T00:55:53;9.10;72.20
81311;DHT22;70779;52.506;5.492;2024-01-30T00:58:19;9.10;72.20
81311;DHT22;70779;52.506;5.492;2024-01-30T01:00:45;9.10;72.30
81311;DHT22;70779;52.506;5.492;2024-01-30T01:03:11;9.10;72.30
81311;DHT22;70779;52.506;5.492;2024-01-30T01:05:38;9.10;72.30
81311;DHT22;70779;52.506;5.492;2024-01-30T01:08:05;9.20;72.40
81311;DHT22;70779;52.506;5.492;2024-01-30T01:10:31;9.20;72.40
81311;DHT22;70779;52.506;5.492;2024-01-30T01:12:57;9.20;72.40
81311;DHT22;70779;52.506;5.492;2024-01-30T01:15:23;9.20;72.40
81311;DHT22;70779;52.506;5.492;2024-01-30T01:17:49;9.20;72.40
81311;DHT22;70779;52.506;5.492;2024-01-30T01:20:15;9.20;72.40
81311;DHT22;70779;52.506;5.492;2024-01-30T01:22:41;9.20;72.50
81311;DHT22;70779;52.506;5.492;2024-01-30T01:25:08;9.30;72.40
81311;DHT22;70779;52.506;5.492;2024-01-30T01:27:36;9.40;72.50
81311;DHT22;70779;52.506;5.492;2024-01-30T01:30:08;9.40;72.40
81311;DHT22;70779;52.506;5.492;2024-01-30T01:32:36;9.40;72.30
81311;DHT22;70779;52.506;5.492;2024-01-30T01:35:02;9.50;72.30
81311;DHT22;70779;52.506;5.492;2024-01-30T01:37:31;9.50;72.20
81311;DHT22;70779;52.506;5.492;2024-01-30T01:39:57;9.60;72.10
81311;DHT22;70779;52.506;5.492;2024-01-30T01:42:23;9.60;72.10
81311;DHT22;70779;52.506;5.492;2024-01-30T01:44:50;9.60;72.00
81311;DHT22;70779;52.506;5.492;2024-01-30T01:47:16;9.60;72.00
81311;DHT22;70779;52.506;5.492;2024-01-30T01:49:42;9.60;71.90
81311;DHT22;70779;52.506;5.492;2024-01-30T01:52:08;9.60;71.90
81311;DHT22;70779;52.506;5.492;2024-01-30T01:54:34;9.50;71.70
81311;DHT22;70779;52.506;5.492;2024-01-30T01:57:01;9.50;71.70
81311;DHT22;70779;52.506;5.492;2024-01-30T01:59:27;9.50;71.70
81311;DHT22;70779;52.506;5.492;2024-01-30T02:01:54;9.40;71.80
81311;DHT22;70779;52.506;5.492;2024-01-30T02:04:21;9.40;72.00
81311;DHT22;70779;52.506;5.492;2024-01-30T02:06:47;9.40;72.00
81311;DHT22;70779;52.506;5.492;2024-01-30T02:09:13;9.40;72.00
81311;DHT22;70779;52.506;5.492;2024-01-30T02:11:39;9.40;72.10
81311;DHT22;70779;52.506;5.492;2024-01-30T02:14:06;9.40;72.20
81311;DHT22;70779;52.506;5.492;2024-01-30T02:16:32;9.50;72.20
81311;DHT22;70779;52.506;5.492;2024-01-30T02:18:58;9.50;72.10
81311;DHT22;70779;52.506;5.492;2024-01-30T02:21:25;9.60;72.00
81311;DHT22;70779;52.506;5.492;2024-01-30T02:23:52;9.60;71.90
81311;DHT22;70779;52.506;5.492;2024-01-30T02:26:19;9.60;71.80
81311;DHT22;70779;52.506;5.492;2024-01-30T02:28:45;9.60;71.90
81311;DHT22;70779;52.506;5.492;2024-01-30T02:31:11;9.70;71.90
81311;DHT22;70779;52.506;5.492;2024-01-30T02:33:37;9.80;71.90
81311;DHT22;70779;52.506;5.492;2024-01-30T02:36:03;9.80;71.80
81311;DHT22;70779;52.506;5.492;2024-01-30T02:38:29;9.90;71.80
81311;DHT22;70779;52.506;5.492;2024-01-30T02:40:55;10.00;71.60
81311;DHT22;70779;52.506;5.492;2024-01-30T02:43:23;10.00;71.50
81311;DHT22;70779;52.506;5.492;2024-01-30T02:45:49;10.00;71.50
81311;DHT22;70779;52.506;5.492;2024-01-30T02:48:15;10.00;71.40
81311;DHT22;70779;52.506;5.492;2024-01-30T02:50:41;10.00;71.30
81311;DHT22;70779;52.506;5.492;2024-01-30T02:53:07;10.00;71.30
81311;DHT22;70779;52.506;5.492;2024-01-30T02:55:33;10.00;71.30
81311;DHT22;70779;52.506;5.492;2024-01-30T02:57:59;10.00;71.30
81311;DHT22;70779;52.506;5.492;2024-01-30T03:00:25;10.00;71.20
81311;DHT22;70779;52.506;5.492;2024-01-30T03:02:51;9.90;71.30
81311;DHT22;70779;52.506;5.492;2024-01-30T03:05:18;9.90;71.30
81311;DHT22;70779;52.506;5.492;2024-01-30T03:07:44;9.80;71.20
81311;DHT22;70779;52.506;5.492;2024-01-30T03:10:10;9.80;71.30
81311;DHT22;70779;52.506;5.492;2024-01-30T03:12:36;9.70;71.40
81311;DHT22;70779;52.506;5.492;2024-01-30T03:15:02;9.70;71.40
81311;DHT22;70779;52.506;5.492;2024-01-30T03:17:28;9.70;71.40
81311;DHT22;70779;52.506;5.492;2024-01-30T03:19:54;9.60;71.50
81311;DHT22;70779;52.506;5.492;2024-01-30T03:22:20;9.60;71.50
81311;DHT22;70779;52.506;5.492;2024-01-30T03:24:46;9.50;71.60
81311;DHT22;70779;52.506;5.492;2024-01-30T03:27:12;9.50;71.70
81311;DHT22;70779;52.506;5.492;2024-01-30T03:29:38;9.50;71.80
81311;DHT22;70779;52.506;5.492;2024-01-30T03:32:05;9.50;71.70
81311;DHT22;70779;52.506;5.492;2024-01-30T03:34:31;9.60;71.80
81311;DHT22;70779;52.506;5.492;2024-01-30T03:36:57;9.60;71.80
81311;DHT22;70779;52.506;5.492;2024-01-30T03:39:23;9.70;71.80
81311;DHT22;70779;52.506;5.492;2024-01-30T03:41:49;9.70;71.70
81311;DHT22;70779;52.506;5.492;2024-01-30T03:44:15;9.80;71.60
81311;DHT22;70779;52.506;5.492;2024-01-30T03:46:42;9.80;71.60
81311;DHT22;70779;52.506;5.492;2024-01-30T03:49:09;9.80;71.50
81311;DHT22;70779;52.506;5.492;2024-01-30T03:51:35;9.80;71.40
81311;DHT22;70779;52.506;5.492;2024-01-30T03:54:01;9.90;71.40
81311;DHT22;70779;52.506;5.492;2024-01-30T03:56:27;10.00;71.30
81311;DHT22;70779;52.506;5.492;2024-01-30T03:58:53;10.00;71.30
81311;DHT22;70779;52.506;5.492;2024-01-30T04:01:19;10.00;71.20
81311;DHT22;70779;52.506;5.492;2024-01-30T04:03:45;10.00;71.20
81311;DHT22;70779;52.506;5.492;2024-01-30T04:06:12;10.00;71.20
81311;DHT22;70779;52.506;5.492;2024-01-30T04:08:38;10.00;71.10
81311;DHT22;70779;52.506;5.492;2024-01-30T04:11:05;10.10;71.00
81311;DHT22;70779;52.506;5.492;2024-01-30T04:13:34;10.10;71.00
81311;DHT22;70779;52.506;5.492;2024-01-30T04:16:00;10.10;71.00
81311;DHT22;70779;52.506;5.492;2024-01-30T04:18:29;10.10;70.90
81311;DHT22;70779;52.506;5.492;2024-01-30T04:20:55;10.10;70.80
81311;DHT22;70779;52.506;5.492;2024-01-30T04:23:22;10.10;70.70
81311;DHT22;70779;52.506;5.492;2024-01-30T04:25:48;10.20;70.80
81311;DHT22;70779;52.506;5.492;2024-01-30T04:28:14;10.20;70.70
81311;DHT22;70779;52.506;5.492;2024-01-30T04:30:40;10.20;70.70
81311;DHT22;70779;52.506;5.492;2024-01-30T04:33:06;10.20;70.70
81311;DHT22;70779;52.506;5.492;2024-01-30T04:35:32;10.20;70.60
81311;DHT22;70779;52.506;5.492;2024-01-30T04:37:58;10.20;70.50
81311;DHT22;70779;52.506;5.492;2024-01-30T04:40:24;10.20;70.50
81311;DHT22;70779;52.506;5.492;2024-01-30T04:42:51;10.30;70.40
81311;DHT22;70779;52.506;5.492;2024-01-30T04:45:17;10.20;70.30
81311;DHT22;70779;52.506;5.492;2024-01-30T04:47:43;10.20;70.30
81311;DHT22;70779;52.506;5.492;2024-01-30T04:50:09;10.20;70.40
81311;DHT22;70779;52.506;5.492;2024-01-30T04:52:35;10.20;70.40
81311;DHT22;70779;52.506;5.492;2024-01-30T04:55:01;10.20;70.40
81311;DHT22;70779;52.506;5.492;2024-01-30T04:57:28;10.20;70.50
81311;DHT22;70779;52.506;5.492;2024-01-30T04:59:54;10.20;70.40
81311;DHT22;70779;52.506;5.492;2024-01-30T05:02:20;10.20;70.40
81311;DHT22;70779;52.506;5.492;2024-01-30T05:04:46;10.30;70.40
81311;DHT22;70779;52.506;5.492;2024-01-30T05:07:12;10.30;70.30
81311;DHT22;70779;52.506;5.492;2024-01-30T05:09:38;10.30;70.30
81311;DHT22;70779;52.506;5.492;2024-01-30T05:12:04;10.30;70.20
81311;DHT22;70779;52.506;5.492;2024-01-30T05:14:30;10.30;70.20
81311;DHT22;70779;52.506;5.492;2024-01-30T05:16:56;10.30;70.30
81311;DHT22;70779;52.506;5.492;2024-01-30T05:19:22;10.30;70.20
81311;DHT22;70779;52.506;5.492;2024-01-30T05:21:49;10.30;70.20
81311;DHT22;70779;52.506;5.492;2024-01-30T05:24:16;10.40;70.20
81311;DHT22;70779;52.506;5.492;2024-01-30T05:26:42;10.40;70.10
81311;DHT22;70779;52.506;5.492;2024-01-30T05:29:08;10.40;70.00
81311;DHT22;70779;52.506;5.492;2024-01-30T05:31:34;10.50;70.00
81311;DHT22;70779;52.506;5.492;2024-01-30T05:34:00;10.50;69.90
81311;DHT22;70779;52.506;5.492;2024-01-30T05:36:26;10.50;69.90
81311;DHT22;70779;52.506;5.492;2024-01-30T05:38:53;10.50;69.80
81311;DHT22;70779;52.506;5.492;2024-01-30T05:41:19;10.50;69.80
81311;DHT22;70779;52.506;5.492;2024-01-30T05:43:46;10.60;69.70
81311;DHT22;70779;52.506;5.492;2024-01-30T05:46:12;10.60;69.70
81311;DHT22;70779;52.506;5.492;2024-01-30T05:48:39;10.60;69.70
81311;DHT22;70779;52.506;5.492;2024-01-30T05:51:06;10.70;69.60
81311;DHT22;70779;52.506;5.492;2024-01-30T05:53:32;10.70;69.60
81311;DHT22;70779;52.506;5.492;2024-01-30T05:56:01;10.80;69.50
81311;DHT22;70779;52.506;5.492;2024-01-30T05:58:27;10.80;69.40
81311;DHT22;70779;52.506;5.492;2024-01-30T06:00:53;10.80;69.30
81311;DHT22;70779;52.506;5.492;2024-01-30T06:03:19;10.80;69.30
81311;DHT22;70779;52.506;5.492;2024-01-30T06:05:45;10.80;69.30
81311;DHT22;70779;52.506;5.492;2024-01-30T06:08:12;10.90;69.30
81311;DHT22;70779;52.506;5.492;2024-01-30T06:10:38;10.90;69.30
81311;DHT22;70779;52.506;5.492;2024-01-30T06:13:05;10.90;69.30
81311;DHT22;70779;52.506;5.492;2024-01-30T06:15:31;10.80;69.20
81311;DHT22;70779;52.506;5.492;2024-01-30T06:18:01;10.90;69.30
81311;DHT22;70779;52.506;5.492;2024-01-30T06:20:27;10.90;69.30
81311;DHT22;70779;52.506;5.492;2024-01-30T06:22:53;10.90;69.20
81311;DHT22;70779;52.506;5.492;2024-01-30T06:25:19;10.90;69.20
81311;DHT22;70779;52.506;5.492;2024-01-30T06:27:45;10.80;69.20
81311;DHT22;70779;52.506;5.492;2024-01-30T06:30:12;10.80;69.30
81311;DHT22;70779;52.506;5.492;2024-01-30T06:32:38;10.80;69.30
81311;DHT22;70779;52.506;5.492;2024-01-30T06:35:05;10.80;69.40
81311;DHT22;70779;52.506;5.492;2024-01-30T06:37:31;10.80;69.40
81311;DHT22;70779;52.506;5.492;2024-01-30T06:39:57;10.80;69.50
81311;DHT22;70779;52.506;5.492;2024-01-30T06:42:23;10.80;69.50
81311;DHT22;70779;52.506;5.492;2024-01-30T06:44:50;10.90;69.40
81311;DHT22;70779;52.506;5.492;2024-01-30T06:47:16;10.90;69.40
81311;DHT22;70779;52.506;5.492;2024-01-30T06:49:42;10.90;69.40
81311;DHT22;70779;52.506;5.492;2024-01-30T06:52:09;10.90;69.40
81311;DHT22;70779;52.506;5.492;2024-01-30T06:54:35;10.90;69.40
81311;DHT22;70779;52.506;5.492;2024-01-30T06:57:02;10.90;69.50
81311;DHT22;70779;52.506;5.492;2024-01-30T06:59:29;11.00;69.40
81311;DHT22;70779;52.506;5.492;2024-01-30T07:01:55;11.00;69.50
81311;DHT22;70779;52.506;5.492;2024-01-30T07:04:21;11.00;69.40
81311;DHT22;70779;52.506;5.492;2024-01-30T07:06:47;11.00;69.50
81311;DHT22;70779;52.506;5.492;2024-01-30T07:09:13;11.00;69.50
81311;DHT22;70779;52.506;5.492;2024-01-30T07:11:39;11.00;69.50
81311;DHT22;70779;52.506;5.492;2024-01-30T07:14:05;11.10;69.50
81311;DHT22;70779;52.506;5.492;2024-01-30T07:16:31;11.10;69.50
81311;DHT22;70779;52.506;5.492;2024-01-30T07:18:58;11.10;69.50
81311;DHT22;70779;52.506;5.492;2024-01-30T07:21:24;11.10;69.50
81311;DHT22;70779;52.506;5.492;2024-01-30T07:23:54;11.10;69.40
81311;DHT22;70779;52.506;5.492;2024-01-30T07:26:21;11.10;69.40
81311;DHT22;70779;52.506;5.492;2024-01-30T07:28:48;11.10;69.50
81311;DHT22;70779;52.506;5.492;2024-01-30T07:31:14;11.10;69.60
81311;DHT22;70779;52.506;5.492;2024-01-30T07:33:40;11.10;69.60
81311;DHT22;70779;52.506;5.492;2024-01-30T07:36:06;11.10;69.70
81311;DHT22;70779;52.506;5.492;2024-01-30T07:38:32;11.10;69.80
81311;DHT22;70779;52.506;5.492;2024-01-30T07:40:58;11.10;69.80
81311;DHT22;70779;52.506;5.492;2024-01-30T07:43:24;11.10;69.90
81311;DHT22;70779;52.506;5.492;2024-01-30T07:45:51;11.10;69.90
81311;DHT22;70779;52.506;5.492;2024-01-30T07:48:17;11.10;70.00
81311;DHT22;70779;52.506;5.492;2024-01-30T07:50:43;11.10;70.00
81311;DHT22;70779;52.506;5.492;2024-01-30T07:53:09;11.10;70.00
81311;DHT22;70779;52.506;5.492;2024-01-30T07:55:35;11.10;70.00
81311;DHT22;70779;52.506;5.492;2024-01-30T07:58:01;11.20;70.00
81311;DHT22;70779;52.506;5.492;2024-01-30T08:00:27;11.30;70.00
81311;DHT22;70779;52.506;5.492;2024-01-30T08:02:55;11.30;69.90
81311;DHT22;70779;52.506;5.492;2024-01-30T08:05:21;11.30;69.90
81311;DHT22;70779;52.506;5.492;2024-01-30T08:07:51;11.40;69.90
81311;DHT22;70779;52.506;5.492;2024-01-30T08:10:17;11.40;69.90
81311;DHT22;70779;52.506;5.492;2024-01-30T08:12:44;11.50;69.90
81311;DHT22;70779;52.506;5.492;2024-01-30T08:15:11;11.50;69.90
81311;DHT22;70779;52.506;5.492;2024-01-30T08:17:38;11.60;69.80
81311;DHT22;70779;52.506;5.492;2024-01-30T08:20:05;11.70;69.70
81311;DHT22;70779;52.506;5.492;2024-01-30T08:22:31;11.70;69.70
81311;DHT22;70779;52.506;5.492;2024-01-30T08:24:57;11.80;69.60
81311;DHT22;70779;52.506;5.492;2024-01-30T08:27:23;11.90;69.60
81311;DHT22;70779;52.506;5.492;2024-01-30T08:29:49;11.90;69.40
81311;DHT22;70779;52.506;5.492;2024-01-30T08:32:16;12.00;69.40
81311;DHT22;70779;52.506;5.492;2024-01-30T08:34:42;12.00;69.30
81311;DHT22;70779;52.506;5.492;2024-01-30T08:37:08;12.10;69.30
81311;DHT22;70779;52.506;5.492;2024-01-30T08:39:34;12.10;69.10
81311;DHT22;70779;52.506;5.492;2024-01-30T08:42:00;12.20;69.10
81311;DHT22;70779;52.506;5.492;2024-01-30T08:44:26;12.20;69.10
81311;DHT22;70779;52.506;5.492;2024-01-30T08:46:53;12.20;69.00
81311;DHT22;70779;52.506;5.492;2024-01-30T08:49:20;12.30;69.00
81311;DHT22;70779;52.506;5.492;2024-01-30T08:51:46;12.30;68.90
81311;DHT22;70779;52.506;5.492;2024-01-30T08:54:13;12.40;68.90
81311;DHT22;70779;52.506;5.492;2024-01-30T08:56:39;12.50;68.80
81311;DHT22;70779;52.506;5.492;2024-01-30T08:59:05;12.50;68.90
81311;DHT22;70779;52.506;5.492;2024-01-30T09:01:31;12.50;68.80
81311;DHT22;70779;52.506;5.492;2024-01-30T09:03:57;12.50;68.70
81311;DHT22;70779;52.506;5.492;2024-01-30T09:06:23;12.50;68.70
81311;DHT22;70779;52.506;5.492;2024-01-30T09:08:52;12.60;68.80
81311;DHT22;70779;52.506;5.492;2024-01-30T09:11:18;12.70;68.70
81311;DHT22;70779;52.506;5.492;2024-01-30T09:13:44;12.70;68.80
81311;DHT22;70779;52.506;5.492;2024-01-30T09:16:10;12.80;68.80
81311;DHT22;70779;52.506;5.492;2024-01-30T09:18:36;12.90;68.70
81311;DHT22;70779;52.506;5.492;2024-01-30T09:21:03;13.00;68.60
81311;DHT22;70779;52.506;5.492;2024-01-30T09:23:29;13.10;68.50
81311;DHT22;70779;52.506;5.492;2024-01-30T09:25:55;13.10;68.50
81311;DHT22;70779;52.506;5.492;2024-01-30T09:28:21;13.20;68.50
81311;DHT22;70779;52.506;5.492;2024-01-30T09:30:47;13.30;68.30
81311;DHT22;70779;52.506;5.492;2024-01-30T09:33:14;13.30;68.30
81311;DHT22;70779;52.506;5.492;2024-01-30T09:35:40;13.30;68.30
81311;DHT22;70779;52.506;5.492;2024-01-30T09:38:06;13.50;68.20
81311;DHT22;70779;52.506;5.492;2024-01-30T09:40:32;13.50;67.90
81311;DHT22;70779;52.506;5.492;2024-01-30T09:42:59;13.50;67.90
81311;DHT22;70779;52.506;5.492;2024-01-30T09:45:28;13.60;67.80
81311;DHT22;70779;52.506;5.492;2024-01-30T09:47:55;13.60;67.70
81311;DHT22;70779;52.506;5.492;2024-01-30T09:50:22;13.70;67.70
81311;DHT22;70779;52.506;5.492;2024-01-30T09:52:48;13.90;67.40
81311;DHT22;70779;52.506;5.492;2024-01-30T09:55:15;13.90;67.20
81311;DHT22;70779;52.506;5.492;2024-01-30T09:57:42;13.90;67.20
81311;DHT22;70779;52.506;5.492;2024-01-30T10:00:08;14.00;67.00
81311;DHT22;70779;52.506;5.492;2024-01-30T10:02:41;14.00;66.90
81311;DHT22;70779;52.506;5.492;2024-01-30T10:05:08;14.00;66.80
81311;DHT22;70779;52.506;5.492;2024-01-30T10:07:34;14.00;66.50
81311;DHT22;70779;52.506;5.492;2024-01-30T10:10:00;14.00;66.60
81311;DHT22;70779;52.506;5.492;2024-01-30T10:12:27;14.00;66.70
81311;DHT22;70779;52.506;5.492;2024-01-30T10:14:56;14.00;66.50
81311;DHT22;70779;52.506;5.492;2024-01-30T10:17:25;14.00;66.30
81311;DHT22;70779;52.506;5.492;2024-01-30T10:19:51;14.00;66.10
81311;DHT22;70779;52.506;5.492;2024-01-30T10:22:18;14.00;66.10
81311;DHT22;70779;52.506;5.492;2024-01-30T10:24:44;14.00;66.20
81311;DHT22;70779;52.506;5.492;2024-01-30T10:27:11;14.00;66.20
81311;DHT22;70779;52.506;5.492;2024-01-30T10:29:37;14.10;66.10
81311;DHT22;70779;52.506;5.492;2024-01-30T10:32:05;14.10;66.00
81311;DHT22;70779;52.506;5.492;2024-01-30T10:34:32;14.10;66.00
81311;DHT22;70779;52.506;5.492;2024-01-30T10:37:10;14.20;66.00
81311;DHT22;70779;52.506;5.492;2024-01-30T10:39:43;14.20;65.70
81311;DHT22;70779;52.506;5.492;2024-01-30T10:42:14;14.20;65.90
81311;DHT22;70779;52.506;5.492;2024-01-30T10:45:05;14.20;65.60
81311;DHT22;70779;52.506;5.492;2024-01-30T10:47:34;14.30;65.20
81311;DHT22;70779;52.506;5.492;2024-01-30T10:50:00;14.30;65.10
81311;DHT22;70779;52.506;5.492;2024-01-30T10:52:28;14.30;65.10
81311;DHT22;70779;52.506;5.492;2024-01-30T10:54:56;14.30;64.90
81311;DHT22;70779;52.506;5.492;2024-01-30T10:57:26;14.20;64.50
81311;DHT22;70779;52.506;5.492;2024-01-30T10:59:55;14.10;64.40
81311;DHT22;70779;52.506;5.492;2024-01-30T11:02:23;14.10;64.00
81311;DHT22;70779;52.506;5.492;2024-01-30T11:04:57;14.00;64.20
81311;DHT22;70779;52.506;5.492;2024-01-30T11:07:25;14.00;63.70
81311;DHT22;70779;52.506;5.492;2024-01-30T11:09:54;14.00;63.30
81311;DHT22;70779;52.506;5.492;2024-01-30T11:12:27;13.90;63.30
81311;DHT22;70779;52.506;5.492;2024-01-30T11:15:07;14.00;63.20
81311;DHT22;70779;52.506;5.492;2024-01-30T11:17:43;14.00;62.30
81311;DHT22;70779;52.506;5.492;2024-01-30T11:20:26;14.00;62.30
81311;DHT22;70779;52.506;5.492;2024-01-30T11:22:54;14.00;62.20
81311;DHT22;70779;52.506;5.492;2024-01-30T11:25:22;14.00;62.00
81311;DHT22;70779;52.506;5.492;2024-01-30T11:27:53;13.90;62.10
81311;DHT22;70779;52.506;5.492;2024-01-30T11:30:30;13.90;62.20
81311;DHT22;70779;52.506;5.492;2024-01-30T11:33:12;13.90;62.10
81311;DHT22;70779;52.506;5.492;2024-01-30T11:35:40;13.90;61.70
81311;DHT22;70779;52.506;5.492;2024-01-30T11:38:08;13.90;62.00
81311;DHT22;70779;52.506;5.492;2024-01-30T11:40:38;13.90;62.00
81311;DHT22;70779;52.506;5.492;2024-01-30T11:43:06;13.70;62.20
81311;DHT22;70779;52.506;5.492;2024-01-30T11:45:33;13.60;62.40
81311;DHT22;70779;52.506;5.492;2024-01-30T11:47:59;13.50;62.60
81311;DHT22;70779;52.506;5.492;2024-01-30T11:50:32;13.50;62.80
81311;DHT22;70779;52.506;5.492;2024-01-30T11:52:59;13.50;62.70
81311;DHT22;70779;52.506;5.492;2024-01-30T11:55:26;13.30;62.90
81311;DHT22;70779;52.506;5.492;2024-01-30T11:57:56;13.30;62.90
81311;DHT22;70779;52.506;5.492;2024-01-30T12:00:23;13.30;63.00
81311;DHT22;70779;52.506;5.492;2024-01-30T12:02:54;13.20;63.10
81311;DHT22;70779;52.506;5.492;2024-01-30T12:05:24;13.10;63.20
81311;DHT22;70779;52.506;5.492;2024-01-30T12:07:50;13.10;63.20
81311;DHT22;70779;52.506;5.492;2024-01-30T12:10:17;13.10;63.40
81311;DHT22;70779;52.506;5.492;2024-01-30T12:12:48;13.10;63.50
81311;DHT22;70779;52.506;5.492;2024-01-30T12:15:15;13.10;63.70
81311;DHT22;70779;52.506;5.492;2024-01-30T12:17:41;13.00;63.70
81311;DHT22;70779;52.506;5.492;2024-01-30T12:20:17;13.00;63.90
81311;DHT22;70779;52.506;5.492;2024-01-30T12:22:47;12.90;64.20
81311;DHT22;70779;52.506;5.492;2024-01-30T12:25:16;12.80;64.40
81311;DHT22;70779;52.506;5.492;2024-01-30T12:27:44;12.80;64.60
81311;DHT22;70779;52.506;5.492;2024-01-30T12:30:12;12.80;64.50
81311;DHT22;70779;52.506;5.492;2024-01-30T12:32:41;12.80;64.40
81311;DHT22;70779;52.506;5.492;2024-01-30T12:35:12;12.80;64.40
81311;DHT22;70779;52.506;5.492;2024-01-30T12:37:39;12.80;64.10
81311;DHT22;70779;52.506;5.492;2024-01-30T12:40:07;12.90;64.10
81311;DHT22;70779;52.506;5.492;2024-01-30T12:42:33;13.00;64.00
81311;DHT22;70779;52.506;5.492;2024-01-30T12:44:59;13.10;63.90
81311;DHT22;70779;52.506;5.492;2024-01-30T12:47:25;13.20;63.70
81311;DHT22;70779;52.506;5.492;2024-01-30T12:49:52;13.30;63.60
81311;DHT22;70779;52.506;5.492;2024-01-30T12:52:20;13.30;63.70
81311;DHT22;70779;52.506;5.492;2024-01-30T12:54:48;13.20;63.60
81311;DHT22;70779;52.506;5.492;2024-01-30T12:57:14;13.10;63.70
81311;DHT22;70779;52.506;5.492;2024-01-30T12:59:40;13.10;64.00
81311;DHT22;70779;52.506;5.492;2024-01-30T13:02:07;13.10;64.10
81311;DHT22;70779;52.506;5.492;2024-01-30T13:04:33;13.00;64.50
81311;DHT22;70779;52.506;5.492;2024-01-30T13:06:59;12.90;65.10
81311;DHT22;70779;52.506;5.492;2024-01-30T13:09:26;12.80;65.70
81311;DHT22;70779;52.506;5.492;2024-01-30T13:11:53;12.70;66.00
81311;DHT22;70779;52.506;5.492;2024-01-30T13:14:19;12.70;66.40
81311;DHT22;70779;52.506;5.492;2024-01-30T13:16:45;12.50;66.80
81311;DHT22;70779;52.506;5.492;2024-01-30T13:19:11;12.50;67.20
81311;DHT22;70779;52.506;5.492;2024-01-30T13:21:37;12.40;67.60
81311;DHT22;70779;52.506;5.492;2024-01-30T13:24:04;12.30;68.00
81311;DHT22;70779;52.506;5.492;2024-01-30T13:26:32;12.20;68.30
81311;DHT22;70779;52.506;5.492;2024-01-30T13:28:59;12.20;68.50
81311;DHT22;70779;52.506;5.492;2024-01-30T13:31:25;12.10;68.70
81311;DHT22;70779;52.506;5.492;2024-01-30T13:33:51;12.10;68.80
81311;DHT22;70779;52.506;5.492;2024-01-30T13:36:17;12.10;68.90
81311;DHT22;70779;52.506;5.492;2024-01-30T13:38:43;12.10;68.80
81311;DHT22;70779;52.506;5.492;2024-01-30T13:41:09;12.10;68.70
81311;DHT22;70779;52.506;5.492;2024-01-30T13:43:35;12.10;68.90
81311;DHT22;70779;52.506;5.492;2024-01-30T13:46:01;12.00;69.20
81311;DHT22;70779;52.506;5.492;2024-01-30T13:48:27;12.00;69.50
81311;DHT22;70779;52.506;5.492;2024-01-30T13:50:54;11.90;69.70
81311;DHT22;70779;52.506;5.492;2024-01-30T13:53:20;11.90;70.00
81311;DHT22;70779;52.506;5.492;2024-01-30T13:55:46;11.90;70.20
81311;DHT22;70779;52.506;5.492;2024-01-30T13:58:13;11.80;70.40
81311;DHT22;70779;52.506;5.492;2024-01-30T14:00:39;11.70;70.50
81311;DHT22;70779;52.506;5.492;2024-01-30T14:03:05;11.70;70.80
81311;DHT22;70779;52.506;5.492;2024-01-30T14:05:31;11.60;71.00
81311;DHT22;70779;52.506;5.492;2024-01-30T14:07:58;11.60;71.40
81311;DHT22;70779;52.506;5.492;2024-01-30T14:10:25;11.50;71.50
81311;DHT22;70779;52.506;5.492;2024-01-30T14:12:51;11.50;71.80
81311;DHT22;70779;52.506;5.492;2024-01-30T14:15:18;11.50;72.00
81311;DHT22;70779;52.506;5.492;2024-01-30T14:17:45;11.50;72.20
81311;DHT22;70779;52.506;5.492;2024-01-30T14:20:11;11.40;72.30
81311;DHT22;70779;52.506;5.492;2024-01-30T14:22:37;11.40;72.60
81311;DHT22;70779;52.506;5.492;2024-01-30T14:25:04;11.40;72.70
81311;DHT22;70779;52.506;5.492;2024-01-30T14:27:31;11.40;72.90
81311;DHT22;70779;52.506;5.492;2024-01-30T14:29:57;11.40;73.00
81311;DHT22;70779;52.506;5.492;2024-01-30T14:32:24;11.40;73.00
81311;DHT22;70779;52.506;5.492;2024-01-30T14:34:51;11.40;73.10
81311;DHT22;70779;52.506;5.492;2024-01-30T14:37:19;11.30;73.00
81311;DHT22;70779;52.506;5.492;2024-01-30T14:39:46;11.30;73.20
81311;DHT22;70779;52.506;5.492;2024-01-30T14:42:14;11.30;73.30
81311;DHT22;70779;52.506;5.492;2024-01-30T14:44:40;11.30;73.50
81311;DHT22;70779;52.506;5.492;2024-01-30T14:47:06;11.30;73.40
81311;DHT22;70779;52.506;5.492;2024-01-30T14:49:33;11.30;73.50
81311;DHT22;70779;52.506;5.492;2024-01-30T14:51:59;11.30;73.60
81311;DHT22;70779;52.506;5.492;2024-01-30T14:54:27;11.30;73.70
81311;DHT22;70779;52.506;5.492;2024-01-30T14:56:53;11.30;73.50
81311;DHT22;70779;52.506;5.492;2024-01-30T14:59:19;11.20;73.70
81311;DHT22;70779;52.506;5.492;2024-01-30T15:01:46;11.30;73.70
81311;DHT22;70779;52.506;5.492;2024-01-30T15:04:12;11.20;73.70
81311;DHT22;70779;52.506;5.492;2024-01-30T15:06:38;11.10;73.70
81311;DHT22;70779;52.506;5.492;2024-01-30T15:09:09;11.10;73.90
81311;DHT22;70779;52.506;5.492;2024-01-30T15:11:35;11.10;73.80
81311;DHT22;70779;52.506;5.492;2024-01-30T15:14:01;11.10;73.80
81311;DHT22;70779;52.506;5.492;2024-01-30T15:16:27;11.10;73.80
81311;DHT22;70779;52.506;5.492;2024-01-30T15:18:54;11.10;73.80
81311;DHT22;70779;52.506;5.492;2024-01-30T15:21:20;11.10;73.90
81311;DHT22;70779;52.506;5.492;2024-01-30T15:23:48;11.10;73.90
81311;DHT22;70779;52.506;5.492;2024-01-30T15:26:15;11.10;73.80
81311;DHT22;70779;52.506;5.492;2024-01-30T15:28:41;11.10;73.80
81311;DHT22;70779;52.506;5.492;2024-01-30T15:31:07;11.10;73.80
81311;DHT22;70779;52.506;5.492;2024-01-30T15:33:33;11.10;73.80